FIN4TY EFOU-EFHK
Flight info
| Callsign | FIN4TY |
|---|---|
| Flight time | 0h 51m |
| Altitude | 31000 |
| Route | MIKNU Y86 LUSEP |
| Aircraft | A320/M-SDE3FGHIRWY/LB1 |
Departure
| Time | 2026-04-22 17:13 |
|---|---|
| Airport | Oulu Airport (EFOU) |
Arrival
| Time | 2026-04-22 18:04 |
|---|---|
| Airport | Helsinki Vantaa Airport (EFHK) |
| Time | Latitude | Longitude | Altitude | Speed | Heading |
|---|---|---|---|---|---|
| 2026-04-22 16:53 | 64.92808 | 25.37365 | 44 ft | 0 kts | 31° |
| 2026-04-22 17:06 | 64.92801 | 25.37355 | 17 ft | 2 kts | 31° |
| 2026-04-22 17:06 | 64.92787 | 25.37335 | 42 ft | 2 kts | 31° |
| 2026-04-22 17:07 | 64.92773 | 25.37316 | 42 ft | 2 kts | 31° |
| 2026-04-22 17:07 | 64.92760 | 25.37291 | 42 ft | 2 kts | 66° |
| 2026-04-22 17:07 | 64.92757 | 25.37254 | 44 ft | 2 kts | 91° |
| 2026-04-22 17:07 | 64.92758 | 25.37221 | 44 ft | 0 kts | 114° |
| 2026-04-22 17:09 | 64.92756 | 25.37233 | 44 ft | 4 kts | 117° |
| 2026-04-22 17:10 | 64.92731 | 25.37332 | 44 ft | 10 kts | 121° |
| 2026-04-22 17:10 | 64.92684 | 25.37503 | 44 ft | 14 kts | 124° |
| 2026-04-22 17:10 | 64.92627 | 25.37739 | 43 ft | 16 kts | 123° |
| 2026-04-22 17:10 | 64.92568 | 25.37922 | 44 ft | 12 kts | 147° |
| 2026-04-22 17:11 | 64.92509 | 25.37916 | 44 ft | 5 kts | 213° |
| 2026-04-22 17:11 | 64.92506 | 25.37911 | 44 ft | 2 kts | 214° |
| 2026-04-22 17:11 | 64.92494 | 25.37881 | 43 ft | 6 kts | 230° |
| 2026-04-22 17:11 | 64.92476 | 25.37636 | 43 ft | 19 kts | 277° |
| 2026-04-22 17:12 | 64.92504 | 25.37461 | 44 ft | 4 kts | 298° |
| 2026-04-22 17:12 | 64.92506 | 25.37448 | 45 ft | 3 kts | 298° |
| 2026-04-22 17:12 | 64.92619 | 25.37011 | 46 ft | 72 kts | 301° |
| 2026-04-22 17:12 | 64.93009 | 25.35482 | 50 ft | 144 kts | 304° |
| 2026-04-22 17:13 | 64.93579 | 25.33217 | 471 ft | 166 kts | 303° |
| 2026-04-22 17:13 | 64.94182 | 25.30770 | 1248 ft | 176 kts | 301° |
| 2026-04-22 17:13 | 64.94830 | 25.28208 | 1799 ft | 191 kts | 303° |
| 2026-04-22 17:13 | 64.95511 | 25.25534 | 2562 ft | 190 kts | 303° |
| 2026-04-22 17:14 | 64.96042 | 25.22715 | 3411 ft | 192 kts | 277° |
| 2026-04-22 17:14 | 64.95706 | 25.19642 | 4098 ft | 209 kts | 237° |
| 2026-04-22 17:14 | 64.94530 | 25.17362 | 4861 ft | 237 kts | 210° |
| 2026-04-22 17:14 | 64.92962 | 25.15677 | 5639 ft | 257 kts | 209° |
| 2026-04-22 17:15 | 64.91867 | 25.14400 | 6106 ft | 261 kts | 211° |
| 2026-04-22 17:15 | 64.89503 | 25.12659 | 6581 ft | 287 kts | 187° |
| 2026-04-22 17:15 | 64.87475 | 25.12938 | 7639 ft | 297 kts | 168° |
| 2026-04-22 17:15 | 64.85464 | 25.14297 | 8805 ft | 304 kts | 163° |
| 2026-04-22 17:16 | 64.83425 | 25.15757 | 9959 ft | 310 kts | 162° |
| 2026-04-22 17:16 | 64.81315 | 25.17284 | 10786 ft | 326 kts | 162° |
| 2026-04-22 17:16 | 64.79087 | 25.18908 | 11483 ft | 344 kts | 162° |
| 2026-04-22 17:16 | 64.76743 | 25.20616 | 12159 ft | 363 kts | 162° |
| 2026-04-22 17:17 | 64.74284 | 25.22401 | 12955 ft | 374 kts | 162° |
| 2026-04-22 17:17 | 64.71773 | 25.24217 | 13878 ft | 381 kts | 162° |
| 2026-04-22 17:17 | 64.69207 | 25.26062 | 14717 ft | 388 kts | 162° |
| 2026-04-22 17:17 | 64.66637 | 25.27909 | 15532 ft | 394 kts | 162° |
| 2026-04-22 17:18 | 64.63962 | 25.29832 | 16333 ft | 401 kts | 162° |
| 2026-04-22 17:18 | 64.61276 | 25.31758 | 17092 ft | 407 kts | 162° |
| 2026-04-22 17:18 | 64.58546 | 25.33709 | 17857 ft | 414 kts | 162° |
| 2026-04-22 17:18 | 64.55772 | 25.35681 | 18556 ft | 420 kts | 162° |
| 2026-04-22 17:19 | 64.50131 | 25.39684 | 19930 ft | 428 kts | 161° |
| 2026-04-22 17:19 | 64.44311 | 25.43097 | 21266 ft | 436 kts | 172° |
| 2026-04-22 17:20 | 64.38210 | 25.43399 | 22460 ft | 443 kts | 182° |
| 2026-04-22 17:20 | 64.31994 | 25.43018 | 23525 ft | 450 kts | 182° |
| 2026-04-22 17:21 | 64.28894 | 25.42844 | 23942 ft | 453 kts | 182° |
| 2026-04-22 17:21 | 64.22563 | 25.42516 | 24740 ft | 457 kts | 182° |
| 2026-04-22 17:22 | 64.16172 | 25.42189 | 25500 ft | 461 kts | 182° |
| 2026-04-22 17:22 | 64.12967 | 25.41985 | 25879 ft | 462 kts | 182° |
| 2026-04-22 17:22 | 64.06499 | 25.41559 | 26506 ft | 468 kts | 181° |
| 2026-04-22 17:23 | 64.03243 | 25.41406 | 26899 ft | 468 kts | 181° |
| 2026-04-22 17:23 | 63.96699 | 25.41127 | 27569 ft | 472 kts | 181° |
| 2026-04-22 17:23 | 63.93408 | 25.40976 | 27899 ft | 473 kts | 181° |
| 2026-04-22 17:24 | 63.90119 | 25.40815 | 28216 ft | 475 kts | 181° |
| 2026-04-22 17:24 | 63.86791 | 25.40643 | 28506 ft | 477 kts | 181° |
| 2026-04-22 17:24 | 63.83466 | 25.40467 | 28805 ft | 479 kts | 181° |
| 2026-04-22 17:24 | 63.80126 | 25.40291 | 29105 ft | 481 kts | 181° |
| 2026-04-22 17:25 | 63.76777 | 25.40118 | 29385 ft | 483 kts | 181° |
| 2026-04-22 17:25 | 63.73406 | 25.39947 | 29631 ft | 485 kts | 181° |
| 2026-04-22 17:25 | 63.70031 | 25.39776 | 29911 ft | 486 kts | 181° |
| 2026-04-22 17:25 | 63.66647 | 25.39600 | 30122 ft | 488 kts | 181° |
| 2026-04-22 17:26 | 63.63244 | 25.39413 | 30330 ft | 490 kts | 181° |
| 2026-04-22 17:26 | 63.59833 | 25.39219 | 30500 ft | 492 kts | 181° |
| 2026-04-22 17:26 | 63.56407 | 25.39031 | 30703 ft | 493 kts | 181° |
| 2026-04-22 17:26 | 63.53015 | 25.38853 | 30833 ft | 496 kts | 181° |
| 2026-04-22 17:27 | 63.46048 | 25.38494 | 30853 ft | 506 kts | 181° |
| 2026-04-22 17:27 | 63.38950 | 25.38138 | 30851 ft | 512 kts | 181° |
| 2026-04-22 17:28 | 63.31785 | 25.37792 | 30844 ft | 517 kts | 181° |
| 2026-04-22 17:28 | 63.24608 | 25.37435 | 30850 ft | 516 kts | 181° |
| 2026-04-22 17:29 | 63.17400 | 25.37049 | 30844 ft | 518 kts | 181° |
| 2026-04-22 17:29 | 63.10202 | 25.36689 | 30841 ft | 518 kts | 181° |
| 2026-04-22 17:30 | 63.02979 | 25.36324 | 30817 ft | 520 kts | 181° |
| 2026-04-22 17:30 | 62.95748 | 25.35949 | 30836 ft | 520 kts | 181° |
| 2026-04-22 17:31 | 62.88503 | 25.35594 | 30819 ft | 521 kts | 181° |
| 2026-04-22 17:31 | 62.81317 | 25.35242 | 30816 ft | 521 kts | 181° |
| 2026-04-22 17:32 | 62.74061 | 25.34878 | 30813 ft | 523 kts | 181° |
| 2026-04-22 17:32 | 62.66769 | 25.34508 | 30835 ft | 530 kts | 182° |
| 2026-04-22 17:33 | 62.59264 | 25.34137 | 30802 ft | 547 kts | 182° |
| 2026-04-22 17:33 | 62.51570 | 25.33771 | 30793 ft | 560 kts | 182° |
| 2026-04-22 17:34 | 62.43802 | 25.33385 | 30788 ft | 570 kts | 182° |
| 2026-04-22 17:34 | 62.35746 | 25.32996 | 30789 ft | 575 kts | 182° |
| 2026-04-22 17:35 | 62.27719 | 25.32612 | 30784 ft | 579 kts | 182° |
| 2026-04-22 17:35 | 62.19642 | 25.32221 | 30789 ft | 581 kts | 182° |
| 2026-04-22 17:36 | 62.11721 | 25.31863 | 30785 ft | 555 kts | 182° |
| 2026-04-22 17:36 | 62.07948 | 25.31689 | 30785 ft | 535 kts | 182° |
| 2026-04-22 17:36 | 62.04238 | 25.31510 | 30779 ft | 529 kts | 182° |
| 2026-04-22 17:37 | 61.96880 | 25.31131 | 30771 ft | 529 kts | 182° |
| 2026-04-22 17:37 | 61.89522 | 25.30772 | 30769 ft | 529 kts | 182° |
| 2026-04-22 17:38 | 61.82160 | 25.30448 | 30768 ft | 528 kts | 182° |
| 2026-04-22 17:38 | 61.74696 | 25.30120 | 30767 ft | 545 kts | 182° |
| 2026-04-22 17:39 | 61.67141 | 25.29768 | 30337 ft | 536 kts | 182° |
| 2026-04-22 17:39 | 61.59737 | 25.29430 | 28103 ft | 527 kts | 182° |
| 2026-04-22 17:40 | 61.56097 | 25.29259 | 27082 ft | 520 kts | 182° |
| 2026-04-22 17:40 | 61.52498 | 25.29086 | 26107 ft | 514 kts | 182° |
| 2026-04-22 17:40 | 61.48963 | 25.28916 | 25420 ft | 502 kts | 183° |
| 2026-04-22 17:40 | 61.45525 | 25.28756 | 24996 ft | 485 kts | 183° |
| 2026-04-22 17:41 | 61.42195 | 25.28605 | 24537 ft | 476 kts | 183° |
| 2026-04-22 17:41 | 61.38893 | 25.28457 | 24075 ft | 473 kts | 183° |
| 2026-04-22 17:41 | 61.35620 | 25.28308 | 23594 ft | 471 kts | 183° |
| 2026-04-22 17:41 | 61.32333 | 25.28152 | 23062 ft | 471 kts | 183° |
| 2026-04-22 17:42 | 61.29080 | 25.27995 | 22767 ft | 461 kts | 183° |
| 2026-04-22 17:42 | 61.25914 | 25.27846 | 22660 ft | 448 kts | 183° |
| 2026-04-22 17:42 | 61.23875 | 25.27754 | 22581 ft | 439 kts | 184° |
| 2026-04-22 17:42 | 61.19786 | 25.27570 | 22437 ft | 440 kts | 183° |
| 2026-04-22 17:43 | 61.16769 | 25.27439 | 22324 ft | 439 kts | 183° |
| 2026-04-22 17:43 | 61.13724 | 25.27304 | 22232 ft | 438 kts | 183° |
| 2026-04-22 17:43 | 61.10676 | 25.27167 | 22118 ft | 437 kts | 184° |
| 2026-04-22 17:43 | 61.07567 | 25.27020 | 21876 ft | 457 kts | 184° |
| 2026-04-22 17:44 | 61.04381 | 25.26870 | 21607 ft | 457 kts | 183° |
| 2026-04-22 17:44 | 61.01205 | 25.26723 | 21337 ft | 455 kts | 183° |
| 2026-04-22 17:44 | 60.98048 | 25.26579 | 21079 ft | 454 kts | 183° |
| 2026-04-22 17:44 | 60.94899 | 25.26448 | 20637 ft | 452 kts | 182° |
| 2026-04-22 17:45 | 60.91712 | 25.26458 | 20172 ft | 470 kts | 180° |
| 2026-04-22 17:45 | 60.89504 | 25.26560 | 19842 ft | 473 kts | 179° |
| 2026-04-22 17:45 | 60.86216 | 25.26813 | 19376 ft | 470 kts | 179° |
| 2026-04-22 17:45 | 60.82957 | 25.27120 | 19067 ft | 471 kts | 178° |
| 2026-04-22 17:46 | 60.79679 | 25.27427 | 18551 ft | 491 kts | 178° |
| 2026-04-22 17:46 | 60.76183 | 25.27722 | 17873 ft | 492 kts | 179° |
| 2026-04-22 17:46 | 60.72943 | 25.27959 | 17510 ft | 484 kts | 179° |
| 2026-04-22 17:46 | 60.69504 | 25.28180 | 17112 ft | 476 kts | 179° |
| 2026-04-22 17:47 | 60.66210 | 25.28377 | 16662 ft | 470 kts | 179° |
| 2026-04-22 17:47 | 60.63055 | 25.28009 | 16234 ft | 460 kts | 194° |
| 2026-04-22 17:47 | 60.60017 | 25.26130 | 15583 ft | 440 kts | 211° |
| 2026-04-22 17:47 | 60.57459 | 25.23006 | 14709 ft | 419 kts | 227° |
| 2026-04-22 17:48 | 60.55425 | 25.18991 | 13905 ft | 401 kts | 237° |
| 2026-04-22 17:48 | 60.53585 | 25.14822 | 13370 ft | 401 kts | 236° |
| 2026-04-22 17:48 | 60.51722 | 25.10642 | 12852 ft | 397 kts | 236° |
| 2026-04-22 17:48 | 60.49875 | 25.06538 | 12359 ft | 392 kts | 236° |
| 2026-04-22 17:49 | 60.48039 | 25.02485 | 11873 ft | 388 kts | 235° |
| 2026-04-22 17:49 | 60.46219 | 24.98475 | 11388 ft | 384 kts | 235° |
| 2026-04-22 17:49 | 60.44421 | 24.94510 | 10913 ft | 381 kts | 235° |
| 2026-04-22 17:49 | 60.42639 | 24.90573 | 10442 ft | 377 kts | 235° |
| 2026-04-22 17:50 | 60.40877 | 24.86683 | 9983 ft | 373 kts | 235° |
| 2026-04-22 17:50 | 60.39166 | 24.82935 | 9749 ft | 349 kts | 235° |
| 2026-04-22 17:50 | 60.37583 | 24.79507 | 9745 ft | 319 kts | 236° |
| 2026-04-22 17:50 | 60.36085 | 24.76250 | 9754 ft | 316 kts | 236° |
| 2026-04-22 17:51 | 60.34598 | 24.72975 | 9757 ft | 317 kts | 236° |
| 2026-04-22 17:51 | 60.33107 | 24.69683 | 9753 ft | 317 kts | 236° |
| 2026-04-22 17:51 | 60.31866 | 24.66170 | 9754 ft | 296 kts | 258° |
| 2026-04-22 17:51 | 60.31313 | 24.62480 | 9753 ft | 258 kts | 269° |
| 2026-04-22 17:52 | 60.30922 | 24.59022 | 9507 ft | 254 kts | 270° |
| 2026-04-22 17:52 | 60.30553 | 24.55561 | 8958 ft | 250 kts | 270° |
| 2026-04-22 17:52 | 60.30199 | 24.52124 | 8303 ft | 251 kts | 270° |
| 2026-04-22 17:52 | 60.29867 | 24.48657 | 7646 ft | 253 kts | 270° |
| 2026-04-22 17:53 | 60.29555 | 24.45177 | 7071 ft | 252 kts | 268° |
| 2026-04-22 17:53 | 60.28859 | 24.41890 | 6569 ft | 264 kts | 239° |
| 2026-04-22 17:53 | 60.27630 | 24.39174 | 6065 ft | 266 kts | 231° |
| 2026-04-22 17:53 | 60.26317 | 24.36574 | 5545 ft | 264 kts | 230° |
| 2026-04-22 17:54 | 60.25005 | 24.34017 | 5026 ft | 261 kts | 230° |
| 2026-04-22 17:54 | 60.23711 | 24.31501 | 4779 ft | 258 kts | 230° |
| 2026-04-22 17:54 | 60.22419 | 24.28990 | 4781 ft | 259 kts | 230° |
| 2026-04-22 17:54 | 60.21120 | 24.26481 | 4779 ft | 259 kts | 230° |
| 2026-04-22 17:55 | 60.19640 | 24.24364 | 4794 ft | 268 kts | 205° |
| 2026-04-22 17:55 | 60.17800 | 24.23798 | 4791 ft | 271 kts | 172° |
| 2026-04-22 17:55 | 60.16027 | 24.24903 | 4393 ft | 265 kts | 147° |
| 2026-04-22 17:55 | 60.14476 | 24.26855 | 3862 ft | 262 kts | 141° |
| 2026-04-22 17:56 | 60.12988 | 24.28936 | 3339 ft | 261 kts | 141° |
| 2026-04-22 17:56 | 60.11522 | 24.31062 | 2825 ft | 259 kts | 139° |
| 2026-04-22 17:56 | 60.10328 | 24.33664 | 2369 ft | 252 kts | 114° |
| 2026-04-22 17:56 | 60.09704 | 24.36874 | 2302 ft | 244 kts | 93° |
| 2026-04-22 17:57 | 60.09616 | 24.40186 | 2304 ft | 234 kts | 75° |
| 2026-04-22 17:57 | 60.10011 | 24.43255 | 2308 ft | 223 kts | 57° |
| 2026-04-22 17:57 | 60.10800 | 24.45831 | 2302 ft | 213 kts | 40° |
| 2026-04-22 17:57 | 60.11806 | 24.48009 | 2300 ft | 212 kts | 38° |
| 2026-04-22 17:58 | 60.12808 | 24.50165 | 2301 ft | 211 kts | 38° |
| 2026-04-22 17:58 | 60.13808 | 24.52321 | 2292 ft | 211 kts | 39° |
| 2026-04-22 17:58 | 60.14808 | 24.54482 | 2294 ft | 211 kts | 39° |
| 2026-04-22 17:58 | 60.15805 | 24.56638 | 2292 ft | 211 kts | 39° |
| 2026-04-22 17:59 | 60.16805 | 24.58801 | 2285 ft | 212 kts | 39° |
| 2026-04-22 17:59 | 60.17803 | 24.60963 | 2288 ft | 211 kts | 40° |
| 2026-04-22 17:59 | 60.18801 | 24.63129 | 2284 ft | 210 kts | 39° |
| 2026-04-22 17:59 | 60.19786 | 24.65267 | 2283 ft | 211 kts | 39° |
| 2026-04-22 18:00 | 60.20444 | 24.66694 | 2284 ft | 207 kts | 39° |
| 2026-04-22 18:00 | 60.21681 | 24.69398 | 2279 ft | 186 kts | 38° |
| 2026-04-22 18:00 | 60.22523 | 24.71231 | 2276 ft | 171 kts | 38° |
| 2026-04-22 18:00 | 60.23331 | 24.72982 | 2302 ft | 170 kts | 38° |
| 2026-04-22 18:01 | 60.24134 | 24.74727 | 2208 ft | 167 kts | 37° |
| 2026-04-22 18:01 | 60.24886 | 24.76376 | 2054 ft | 153 kts | 37° |
| 2026-04-22 18:01 | 60.25574 | 24.77883 | 1858 ft | 138 kts | 35° |
| 2026-04-22 18:01 | 60.26218 | 24.79283 | 1683 ft | 137 kts | 36° |
| 2026-04-22 18:02 | 60.26865 | 24.80690 | 1489 ft | 138 kts | 36° |
| 2026-04-22 18:02 | 60.27515 | 24.82108 | 1297 ft | 138 kts | 38° |
| 2026-04-22 18:02 | 60.28167 | 24.83532 | 1107 ft | 142 kts | 38° |
| 2026-04-22 18:02 | 60.28845 | 24.85006 | 887 ft | 145 kts | 39° |
| 2026-04-22 18:03 | 60.29536 | 24.86525 | 680 ft | 148 kts | 39° |
| 2026-04-22 18:03 | 60.30247 | 24.88067 | 493 ft | 152 kts | 40° |
| 2026-04-22 18:03 | 60.30950 | 24.89630 | 283 ft | 149 kts | 41° |
| 2026-04-22 18:03 | 60.31652 | 24.91157 | 147 ft | 142 kts | 41° |
| 2026-04-22 18:04 | 60.32147 | 24.92237 | 162 ft | 70 kts | 49° |
| 2026-04-22 18:04 | 60.32420 | 24.92936 | 174 ft | 58 kts | 71° |
| 2026-04-22 18:04 | 60.32493 | 24.93522 | 173 ft | 25 kts | 78° |
| 2026-04-22 18:04 | 60.32513 | 24.93717 | 172 ft | 3 kts | 77° |
| 2026-04-22 18:05 | 60.32513 | 24.93724 | 172 ft | 0 kts | 78° |
| 2026-04-22 18:05 | 60.32514 | 24.93732 | 172 ft | 4 kts | 77° |
| 2026-04-22 18:06 | 60.32547 | 24.93924 | 171 ft | 22 kts | 48° |
| 2026-04-22 18:06 | 60.32670 | 24.94207 | 172 ft | 32 kts | 48° |
| 2026-04-22 18:06 | 60.32838 | 24.94573 | 174 ft | 39 kts | 47° |
| 2026-04-22 18:06 | 60.33032 | 24.94999 | 177 ft | 43 kts | 51° |
| 2026-04-22 18:07 | 60.33210 | 24.95425 | 182 ft | 29 kts | 85° |
| 2026-04-22 18:07 | 60.33119 | 24.95679 | 180 ft | 21 kts | 140° |
| 2026-04-22 18:07 | 60.33008 | 24.95844 | 180 ft | 19 kts | 149° |
| 2026-04-22 18:07 | 60.32859 | 24.96017 | 175 ft | 32 kts | 149° |
| 2026-04-22 18:08 | 60.32656 | 24.96255 | 172 ft | 35 kts | 149° |
| 2026-04-22 18:08 | 60.32549 | 24.96383 | 174 ft | 0 kts | 150° |
| 2026-04-22 18:09 | 60.32540 | 24.96392 | 174 ft | 2 kts | 150° |
| 2026-04-22 18:09 | 60.32538 | 24.96395 | 174 ft | 0 kts | 150° |
| 2026-04-22 18:11 | 60.32507 | 24.96431 | 174 ft | 13 kts | 150° |
| 2026-04-22 18:11 | 60.32366 | 24.96591 | 173 ft | 30 kts | 152° |
| 2026-04-22 18:11 | 60.32170 | 24.96819 | 166 ft | 33 kts | 152° |
| 2026-04-22 18:11 | 60.32023 | 24.96950 | 167 ft | 11 kts | 192° |
| 2026-04-22 18:12 | 60.31986 | 24.96909 | 167 ft | 0 kts | 216° |
| 2026-04-22 18:12 | 60.31981 | 24.96902 | 167 ft | 1 kts | 216° |
| 2026-04-22 18:12 | 60.31978 | 24.96896 | 167 ft | 2 kts | 217° |
| 2026-04-22 18:12 | 60.31976 | 24.96893 | 167 ft | 0 kts | 217° |